Time;durP1;ratioP1;P1;durP2;ratioP2;P2;SDS_P1;SDS_P2;PMS_P1;PMS_P2;Temp;Humidity;BMP_temperature;BMP_pressure;BME280_temperature;BME280_humidity;BME280_pressure;Samples;Min_cycle;Max_cycle;Signal;HPM_P1;HPM_P2
2023/10/23 00:01:43;;;;;;;12.20;6.87;;;7.90;99.90;;;;;;4976804;28;20047;-81
2023/10/23 00:04:09;;;;;;;15.20;8.77;;;7.80;99.90;;;;;;4960731;28;20046;-81
2023/10/23 00:06:35;;;;;;;12.97;7.93;;;7.90;99.90;;;;;;4992893;28;20088;-80
2023/10/23 00:09:01;;;;;;;12.57;7.47;;;7.80;99.90;;;;;;4993642;28;20089;-80
2023/10/23 00:11:29;;;;;;;10.77;7.67;;;7.80;99.90;;;;;;4977390;28;20126;-81
2023/10/23 00:13:55;;;;;;;11.20;7.57;;;7.80;99.90;;;;;;4976735;28;20344;-81
2023/10/23 00:16:22;;;;;;;10.07;6.40;;;7.80;99.90;;;;;;4993629;28;20332;-81
2023/10/23 00:18:49;;;;;;;11.87;6.50;;;7.80;99.90;;;;;;4992790;28;20290;-81
2023/10/23 00:21:15;;;;;;;10.80;6.40;;;7.80;99.90;;;;;;4992787;28;20380;-81
2023/10/23 00:23:41;;;;;;;11.97;7.97;;;7.70;99.90;;;;;;4993015;28;20293;-82
2023/10/23 00:26:07;;;;;;;13.60;8.90;;;7.70;99.90;;;;;;4976751;28;20285;-80
2023/10/23 00:28:33;;;;;;;11.07;7.37;;;7.70;99.90;;;;;;4993509;28;20062;-81
2023/10/23 00:30:59;;;;;;;11.40;6.83;;;7.70;99.90;;;;;;4993298;28;20306;-80
2023/10/23 00:33:26;;;;;;;12.83;8.83;;;7.70;99.90;;;;;;4993302;28;20294;-80
2023/10/23 00:35:53;;;;;;;9.30;6.73;;;7.70;99.90;;;;;;4993705;28;20373;-81
2023/10/23 00:38:19;;;;;;;12.67;8.17;;;7.70;99.90;;;;;;4992869;28;20325;-81
2023/10/23 00:40:44;;;;;;;19.37;11.40;;;7.70;99.90;;;;;;4992635;28;20293;-82
2023/10/23 00:43:18;;;;;;;16.90;11.10;;;7.70;99.90;;;;;;4992414;28;20289;-81
2023/10/23 00:46:14;;;;;;;12.73;8.60;;;7.70;99.90;;;;;;4993606;28;20052;-82
2023/10/23 00:48:41;;;;;;;15.33;9.50;;;7.70;99.90;;;;;;4976381;28;20289;-81
2023/10/23 00:51:07;;;;;;;15.53;8.77;;;7.70;99.90;;;;;;4978229;28;20367;-81
2023/10/23 00:53:36;;;;;;;15.53;9.73;;;7.60;99.90;;;;;;4995870;28;20293;-80
2023/10/23 00:56:04;;;;;;;10.97;7.23;;;7.60;99.90;;;;;;4996961;28;20283;-81
2023/10/23 00:58:32;;;;;;;12.73;8.47;;;7.60;99.90;;;;;;4996248;28;20429;-80
2023/10/23 01:00:58;;;;;;;13.83;7.93;;;7.60;99.90;;;;;;4997429;28;20690;-81
2023/10/23 01:03:25;;;;;;;13.97;8.53;;;7.60;99.90;;;;;;4995838;28;20294;-80
2023/10/23 01:05:50;;;;;;;12.93;8.50;;;7.60;99.90;;;;;;4979627;28;20729;-81
2023/10/23 01:08:16;;;;;;;9.57;6.83;;;7.60;99.90;;;;;;4995707;28;20379;-81
2023/10/23 01:10:42;;;;;;;11.50;8.63;;;7.60;99.90;;;;;;4979252;28;20129;-80
2023/10/23 01:13:09;;;;;;;11.13;6.60;;;7.50;99.90;;;;;;4995564;28;20069;-81
2023/10/23 01:15:35;;;;;;;13.73;8.70;;;7.60;99.90;;;;;;4995552;28;20298;-81
2023/10/23 01:18:02;;;;;;;11.77;8.40;;;7.60;99.90;;;;;;4995568;28;20296;-80
2023/10/23 01:20:28;;;;;;;10.07;7.27;;;7.50;99.90;;;;;;4996545;28;20278;-80
2023/10/23 01:22:58;;;;;;;13.23;8.47;;;7.50;99.90;;;;;;4979293;28;20291;-81
2023/10/23 01:25:24;;;;;;;13.67;9.97;;;7.50;99.90;;;;;;4979307;28;20335;-81
2023/10/23 01:27:50;;;;;;;11.57;7.83;;;7.50;99.90;;;;;;4995902;28;20289;-81
2023/10/23 01:30:16;;;;;;;14.30;8.90;;;7.50;99.90;;;;;;4995816;28;20316;-80
2023/10/23 01:32:42;;;;;;;17.23;9.23;;;7.40;99.90;;;;;;4995114;28;20285;-80
2023/10/23 01:35:09;;;;;;;15.63;8.67;;;7.40;99.90;;;;;;4996065;28;20112;-81
2023/10/23 01:37:35;;;;;;;13.20;7.70;;;7.40;99.90;;;;;;4995549;28;20128;-80
2023/10/23 01:40:01;;;;;;;13.87;9.77;;;7.40;99.90;;;;;;4995225;28;20377;-81
2023/10/23 01:42:30;;;;;;;14.87;8.07;;;7.30;99.90;;;;;;4995128;28;20637;-80
2023/10/23 01:44:56;;;;;;;11.13;7.63;;;7.40;99.90;;;;;;4995074;28;20058;-81
2023/10/23 01:47:25;;;;;;;12.40;6.97;;;7.40;99.90;;;;;;4979332;28;20343;-81
2023/10/23 01:49:51;;;;;;;13.17;8.53;;;7.40;99.90;;;;;;4995664;28;20281;-83
2023/10/23 01:52:17;;;;;;;19.77;10.67;;;7.40;99.90;;;;;;4978436;28;20789;-81
2023/10/23 01:54:43;;;;;;;22.03;10.33;;;7.40;99.90;;;;;;4978956;28;20046;-81
2023/10/23 01:57:12;;;;;;;10.80;7.20;;;7.30;99.90;;;;;;4978114;28;20364;-80
2023/10/23 01:59:38;;;;;;;13.60;9.07;;;7.30;99.90;;;;;;4994370;28;20052;-81
2023/10/23 02:02:04;;;;;;;13.33;8.17;;;7.30;99.90;;;;;;4994691;28;20297;-81
2023/10/23 02:04:30;;;;;;;9.90;7.57;;;7.30;99.90;;;;;;4962586;28;20611;-80
2023/10/23 02:06:56;;;;;;;13.17;8.63;;;7.30;99.90;;;;;;4994956;28;20050;-81
2023/10/23 02:09:22;;;;;;;13.47;8.80;;;7.30;99.90;;;;;;4962312;28;20352;-80
2023/10/23 02:11:48;;;;;;;10.33;7.07;;;7.30;99.90;;;;;;4995564;28;20082;-80
2023/10/23 02:14:14;;;;;;;11.40;7.80;;;7.30;99.90;;;;;;4994375;28;20281;-80
2023/10/23 02:16:40;;;;;;;15.53;9.83;;;7.30;99.90;;;;;;4994499;28;20293;-80
2023/10/23 02:19:06;;;;;;;10.47;8.47;;;7.20;99.90;;;;;;4994687;28;20479;-80
2023/10/23 02:21:31;;;;;;;14.93;9.27;;;7.20;99.90;;;;;;4978337;28;20491;-80
2023/10/23 02:23:58;;;;;;;14.17;9.13;;;7.30;99.90;;;;;;4995083;28;20042;-81
2023/10/23 02:26:24;;;;;;;11.10;7.70;;;7.30;99.90;;;;;;4994356;28;20050;-80
2023/10/23 02:28:50;;;;;;;14.93;8.57;;;7.30;99.90;;;;;;4995104;28;20364;-80
2023/10/23 02:31:17;;;;;;;12.07;8.47;;;7.30;99.90;;;;;;4994354;28;20309;-80
2023/10/23 02:33:42;;;;;;;15.13;9.20;;;7.20;99.90;;;;;;4993871;28;20297;-80
2023/10/23 02:36:08;;;;;;;15.33;10.00;;;7.20;99.90;;;;;;4978001;28;20312;-80
2023/10/23 02:38:34;;;;;;;10.87;7.50;;;7.20;99.90;;;;;;4995094;28;20490;-80
2023/10/23 02:41:00;;;;;;;18.73;8.70;;;7.20;99.90;;;;;;4994923;28;20050;-81
2023/10/23 02:43:26;;;;;;;14.37;8.93;;;7.10;99.90;;;;;;4994900;28;20054;-80
2023/10/23 02:45:52;;;;;;;9.23;7.03;;;7.20;99.90;;;;;;4993863;28;20046;-80
2023/10/23 02:48:17;;;;;;;11.30;7.00;;;7.20;99.90;;;;;;4977344;28;20720;-81
2023/10/23 02:50:53;;;;;;;12.97;8.27;;;7.20;99.90;;;;;;4993801;28;20046;-80
2023/10/23 02:53:19;;;;;;;14.13;10.40;;;7.10;99.90;;;;;;4994646;28;20123;-81
2023/10/23 02:55:44;;;;;;;19.03;10.30;;;7.10;99.90;;;;;;4994080;28;20282;-80
2023/10/23 02:58:10;;;;;;;9.90;7.43;;;7.10;99.90;;;;;;4993720;28;20418;-81
2023/10/23 03:00:36;;;;;;;14.17;8.53;;;7.00;99.90;;;;;;4993822;28;20133;-80
2023/10/23 03:03:01;;;;;;;13.13;8.57;;;7.00;99.90;;;;;;4993398;28;20042;-81
2023/10/23 03:05:27;;;;;;;14.27;9.63;;;7.00;99.90;;;;;;4993768;28;20065;-80
2023/10/23 03:07:53;;;;;;;15.23;10.43;;;7.00;99.90;;;;;;4993704;28;20617;-80
2023/10/23 03:10:19;;;;;;;12.00;9.60;;;7.00;99.90;;;;;;4994421;28;20050;-80
2023/10/23 03:12:45;;;;;;;14.37;8.50;;;7.00;99.90;;;;;;4993072;28;20108;-81
2023/10/23 03:15:11;;;;;;;12.53;8.33;;;7.10;99.90;;;;;;4993339;28;20282;-80
2023/10/23 03:17:36;;;;;;;15.00;10.03;;;7.00;99.90;;;;;;4994276;28;20050;-80
2023/10/23 03:20:03;;;;;;;10.93;8.00;;;7.00;99.90;;;;;;4993694;28;20285;-81
2023/10/23 03:22:29;;;;;;;17.50;10.77;;;7.00;99.90;;;;;;4994356;28;20046;-80
2023/10/23 03:24:55;;;;;;;12.00;8.73;;;7.00;99.90;;;;;;4993576;28;20286;-80
2023/10/23 03:27:21;;;;;;;24.53;10.73;;;7.00;99.90;;;;;;4994325;28;20054;-80
2023/10/23 03:29:47;;;;;;;14.30;9.53;;;7.00;99.90;;;;;;4961162;28;20050;-80
2023/10/23 03:32:12;;;;;;;15.63;11.30;;;7.00;99.90;;;;;;4977044;28;20351;-80
2023/10/23 03:34:38;;;;;;;12.90;8.73;;;7.00;99.90;;;;;;4992547;28;20055;-81
2023/10/23 03:37:04;;;;;;;11.27;8.37;;;6.90;99.90;;;;;;4977325;28;20489;-82
2023/10/23 03:39:30;;;;;;;21.73;13.03;;;7.00;99.90;;;;;;4993174;28;20501;-80
2023/10/23 03:41:56;;;;;;;17.17;11.17;;;6.90;99.90;;;;;;4994159;28;20061;-80
2023/10/23 03:44:21;;;;;;;17.80;10.87;;;6.90;99.90;;;;;;4977656;28;20283;-80
2023/10/23 03:46:47;;;;;;;19.73;12.67;;;6.90;99.90;;;;;;4992940;28;20475;-80
2023/10/23 03:49:13;;;;;;;22.50;13.17;;;6.90;99.90;;;;;;4993299;28;20050;-80
2023/10/23 03:51:38;;;;;;;20.80;13.60;;;6.90;99.90;;;;;;4976709;28;20483;-80
2023/10/23 03:54:04;;;;;;;18.03;11.63;;;7.00;99.90;;;;;;4993830;28;20047;-80
2023/10/23 03:56:30;;;;;;;29.17;13.83;;;7.00;99.90;;;;;;4994040;28;20550;-80
2023/10/23 03:58:56;;;;;;;23.00;13.87;;;7.00;99.90;;;;;;4993017;28;20402;-80
2023/10/23 04:01:21;;;;;;;25.63;15.20;;;7.10;99.90;;;;;;4993986;28;20051;-80
2023/10/23 04:03:47;;;;;;;14.70;12.00;;;7.00;99.90;;;;;;4992952;28;20097;-80
2023/10/23 04:06:13;;;;;;;17.73;12.37;;;7.10;99.90;;;;;;4977235;28;20052;-80
2023/10/23 04:08:38;;;;;;;13.97;10.63;;;7.10;99.90;;;;;;4993657;28;20043;-79
2023/10/23 04:11:04;;;;;;;16.73;11.70;;;7.00;99.90;;;;;;4976855;28;20129;-81
2023/10/23 04:13:32;;;;;;;21.13;13.80;;;7.00;99.90;;;;;;4993434;28;20050;-80
2023/10/23 04:15:59;;;;;;;18.07;12.50;;;7.00;99.90;;;;;;4993137;28;20058;-79
2023/10/23 04:18:25;;;;;;;17.47;11.77;;;6.90;99.90;;;;;;4977451;28;20662;-80
2023/10/23 04:21:02;;;;;;;21.70;13.17;;;7.00;99.90;;;;;;4993202;28;20285;-80
2023/10/23 04:23:28;;;;;;;15.70;12.40;;;6.90;99.90;;;;;;4977442;28;20046;-80
2023/10/23 04:25:55;;;;;;;18.83;12.63;;;6.90;99.90;;;;;;4994337;28;20282;-80
2023/10/23 04:28:21;;;;;;;18.23;11.63;;;7.00;99.90;;;;;;4997564;28;20054;-80
2023/10/23 04:30:46;;;;;;;22.07;13.10;;;7.00;99.90;;;;;;4980716;28;20309;-80
2023/10/23 04:33:16;;;;;;;20.67;13.60;;;6.90;99.90;;;;;;4996230;28;20417;-80
2023/10/23 04:35:42;;;;;;;13.57;10.87;;;6.90;99.90;;;;;;4996748;28;20054;-80
2023/10/23 04:38:08;;;;;;;15.40;10.50;;;7.00;99.90;;;;;;4996699;28;20705;-80
2023/10/23 04:40:34;;;;;;;20.37;12.53;;;6.90;99.90;;;;;;4997370;28;20046;-80
2023/10/23 04:42:59;;;;;;;17.17;11.93;;;6.90;99.90;;;;;;4996280;28;20282;-79
2023/10/23 04:45:25;;;;;;;16.00;11.80;;;6.90;99.90;;;;;;4995968;28;20359;-80
2023/10/23 04:47:51;;;;;;;18.37;12.00;;;6.90;99.90;;;;;;4997253;28;20054;-79
2023/10/23 04:50:16;;;;;;;14.23;11.97;;;6.80;99.90;;;;;;4996278;28;20046;-80
2023/10/23 04:52:43;;;;;;;13.07;9.57;;;6.90;99.90;;;;;;4979968;28;20046;-80
2023/10/23 04:55:09;;;;;;;13.23;11.10;;;6.90;99.90;;;;;;4997046;28;20046;-80
2023/10/23 04:57:34;;;;;;;14.63;10.43;;;6.90;99.90;;;;;;4980197;28;20297;-79
2023/10/23 05:00:00;;;;;;;14.90;10.90;;;6.80;99.90;;;;;;4997706;28;20047;-79
2023/10/23 05:02:26;;;;;;;14.13;10.77;;;6.80;99.90;;;;;;4979783;28;20505;-79
2023/10/23 05:04:52;;;;;;;19.10;11.93;;;6.80;99.90;;;;;;4995628;28;20433;-79
2023/10/23 05:07:17;;;;;;;15.33;11.80;;;6.70;99.90;;;;;;4964333;28;20042;-79
2023/10/23 05:09:43;;;;;;;15.73;12.17;;;6.70;99.90;;;;;;4995656;28;20062;-79
2023/10/23 05:12:09;;;;;;;21.77;14.20;;;6.70;99.90;;;;;;4995446;28;20053;-78
2023/10/23 05:14:34;;;;;;;20.17;13.87;;;6.70;99.90;;;;;;4996670;28;20054;-78
2023/10/23 05:17:00;;;;;;;16.50;11.00;;;6.70;99.90;;;;;;4996636;28;20046;-78
2023/10/23 05:19:26;;;;;;;14.83;11.20;;;6.70;99.90;;;;;;4995589;28;20129;-78
2023/10/23 05:21:52;;;;;;;17.00;11.33;;;6.70;99.90;;;;;;4995491;28;20407;-79
2023/10/23 05:24:18;;;;;;;22.80;14.40;;;6.70;99.90;;;;;;4995226;28;20054;-79
2023/10/23 05:26:43;;;;;;;25.30;15.13;;;6.60;99.90;;;;;;4980016;28;20289;-78
2023/10/23 05:29:09;;;;;;;26.00;13.90;;;6.70;99.90;;;;;;4980023;28;20038;-78
2023/10/23 05:31:35;;;;;;;20.43;13.37;;;6.60;99.90;;;;;;4995075;28;20038;-78
2023/10/23 05:34:00;;;;;;;14.23;11.03;;;6.60;99.90;;;;;;4994319;28;20058;-79
2023/10/23 05:36:26;;;;;;;14.73;11.23;;;6.60;99.90;;;;;;4994732;28;20046;-79
2023/10/23 05:38:52;;;;;;;20.50;13.17;;;6.60;99.90;;;;;;4994919;28;20042;-79
2023/10/23 05:41:17;;;;;;;15.23;12.50;;;6.60;99.90;;;;;;4995968;28;20050;-79
2023/10/23 05:43:44;;;;;;;18.90;12.20;;;6.50;99.90;;;;;;4978955;28;20046;-78
2023/10/23 05:46:09;;;;;;;15.77;10.93;;;6.50;99.90;;;;;;4996033;28;20557;-78
2023/10/23 05:48:36;;;;;;;18.03;12.63;;;6.60;99.90;;;;;;4995961;28;20373;-78
2023/10/23 05:51:04;;;;;;;17.20;12.57;;;6.60;99.90;;;;;;4995102;28;20129;-78
2023/10/23 05:53:31;;;;;;;16.00;11.10;;;6.60;99.90;;;;;;4994984;28;20619;-79
2023/10/23 05:56:04;;;;;;;18.00;13.40;;;6.60;99.90;;;;;;4995711;28;20776;-78
2023/10/23 05:58:31;;;;;;;21.20;13.97;;;6.50;99.90;;;;;;4979489;28;20304;-80
2023/10/23 06:00:56;;;;;;;18.47;13.50;;;6.60;99.90;;;;;;4994913;28;20286;-79
2023/10/23 06:03:22;;;;;;;16.07;10.87;;;6.50;99.90;;;;;;4995779;28;20285;-83
2023/10/23 06:05:48;;;;;;;16.33;11.83;;;6.50;99.90;;;;;;4994552;28;20105;-77
2023/10/23 06:08:13;;;;;;;19.47;13.07;;;6.50;99.90;;;;;;4977780;28;20046;-78
2023/10/23 06:10:43;;;;;;;14.23;10.13;;;6.50;99.90;;;;;;4995574;28;20053;-77
2023/10/23 06:13:10;;;;;;;14.07;11.00;;;6.40;99.90;;;;;;4995695;28;20058;-78
2023/10/23 06:15:35;;;;;;;14.93;11.90;;;6.50;99.90;;;;;;4995566;28;20282;-80
2023/10/23 06:18:04;;;;;;;16.37;11.57;;;6.50;99.90;;;;;;4978430;28;20345;-79
2023/10/23 06:20:31;;;;;;;16.50;11.40;;;6.50;99.90;;;;;;4995501;28;20046;-83
2023/10/23 06:22:58;;;;;;;18.13;12.57;;;6.50;99.90;;;;;;4978200;28;20305;-82
2023/10/23 06:25:24;;;;;;;15.27;11.43;;;6.40;99.90;;;;;;4978314;28;20297;-82
2023/10/23 06:27:50;;;;;;;31.00;16.57;;;6.40;99.90;;;;;;4994118;28;20769;-78
2023/10/23 06:30:16;;;;;;;16.33;12.43;;;6.40;99.90;;;;;;4995296;28;20054;-80
2023/10/23 06:32:41;;;;;;;16.53;12.57;;;6.40;99.90;;;;;;4995009;28;20478;-78
2023/10/23 06:35:07;;;;;;;16.57;13.20;;;6.40;99.90;;;;;;4994165;28;20398;-78
2023/10/23 06:37:33;;;;;;;17.77;13.23;;;6.40;99.90;;;;;;4993828;28;20086;-77
2023/10/23 06:40:09;;;;;;;20.53;13.43;;;6.40;99.90;;;;;;4994567;28;20053;-78
2023/10/23 06:42:34;;;;;;;17.20;14.00;;;6.40;99.90;;;;;;4994705;28;20118;-78
2023/10/23 06:45:00;;;;;;;22.23;13.93;;;6.40;99.90;;;;;;4995019;28;20384;-78
2023/10/23 06:47:26;;;;;;;15.13;11.80;;;6.40;99.90;;;;;;4995505;28;20130;-78
2023/10/23 06:49:52;;;;;;;19.73;13.00;;;6.40;99.90;;;;;;4994678;28;20697;-77
2023/10/23 06:52:18;;;;;;;23.70;15.17;;;6.40;99.90;;;;;;4977423;28;20133;-78
2023/10/23 06:54:43;;;;;;;16.50;12.10;;;6.40;99.90;;;;;;4994823;28;20129;-78
2023/10/23 06:57:09;;;;;;;15.97;13.07;;;6.40;99.90;;;;;;4993563;28;20491;-78
2023/10/23 06:59:36;;;;;;;16.37;12.13;;;6.50;99.90;;;;;;4993423;28;20058;-78
2023/10/23 07:02:02;;;;;;;18.00;12.90;;;6.50;99.90;;;;;;4993703;28;20062;-78
2023/10/23 07:04:28;;;;;;;23.40;14.57;;;6.50;99.90;;;;;;4994705;28;20273;-78
2023/10/23 07:06:55;;;;;;;20.47;15.87;;;6.50;99.90;;;;;;4993189;28;20282;-78
2023/10/23 07:09:21;;;;;;;13.90;12.40;;;6.50;99.90;;;;;;4993607;28;20789;-78
2023/10/23 07:11:52;;;;;;;20.27;13.77;;;6.50;99.90;;;;;;4994459;28;20294;-78
2023/10/23 07:14:18;;;;;;;21.93;15.03;;;6.50;99.90;;;;;;4994554;28;20050;-78
2023/10/23 07:16:45;;;;;;;15.27;11.87;;;6.60;99.90;;;;;;4993267;28;20428;-78
2023/10/23 07:19:11;;;;;;;14.73;11.63;;;6.60;99.90;;;;;;4993191;28;20061;-78
2023/10/23 07:21:37;;;;;;;20.63;15.00;;;6.70;99.90;;;;;;4993423;28;20331;-78
2023/10/23 07:24:03;;;;;;;20.20;15.17;;;6.70;99.90;;;;;;4994643;28;20633;-78
2023/10/23 07:26:29;;;;;;;20.53;16.07;;;6.70;99.90;;;;;;4994318;28;20281;-77
2023/10/23 07:28:55;;;;;;;27.53;19.57;;;6.70;99.90;;;;;;4994301;28;20086;-78
2023/10/23 07:31:21;;;;;;;19.07;15.17;;;6.70;99.90;;;;;;4992851;28;20050;-78
2023/10/23 07:33:47;;;;;;;27.40;17.70;;;6.70;99.90;;;;;;4993831;28;20062;-78
2023/10/23 07:36:14;;;;;;;28.10;18.30;;;6.80;99.90;;;;;;4994952;28;20348;-78
2023/10/23 07:38:42;;;;;;;24.57;16.33;;;6.80;99.90;;;;;;4994956;28;20285;-78
2023/10/23 07:41:08;;;;;;;21.60;16.03;;;6.80;99.90;;;;;;4993440;28;20372;-78
2023/10/23 07:43:34;;;;;;;21.77;14.47;;;6.80;99.90;;;;;;4994457;28;20281;-78
2023/10/23 07:46:08;;;;;;;22.33;16.00;;;6.90;99.90;;;;;;4994637;28;20308;-78
2023/10/23 07:48:34;;;;;;;31.77;19.73;;;6.90;99.90;;;;;;4994107;28;20512;-80
2023/10/23 07:51:00;;;;;;;19.13;15.50;;;7.00;99.90;;;;;;4992799;28;20313;-78
2023/10/23 07:53:27;;;;;;;36.07;20.73;;;7.00;99.90;;;;;;4993803;28;20377;-77
2023/10/23 07:55:54;;;;;;;25.77;18.00;;;7.10;99.90;;;;;;4993027;28;20289;-78
2023/10/23 07:58:20;;;;;;;34.80;19.17;;;7.10;99.90;;;;;;4994051;28;20281;-78
2023/10/23 08:00:45;;;;;;;29.10;19.53;;;7.20;99.90;;;;;;4997076;28;20284;-78
2023/10/23 08:03:11;;;;;;;24.43;17.50;;;7.20;99.90;;;;;;4997716;28;20058;-77
2023/10/23 08:05:37;;;;;;;31.23;19.07;;;7.30;99.90;;;;;;4997028;28;20089;-78
2023/10/23 08:08:05;;;;;;;25.80;16.60;;;7.30;99.90;;;;;;4996970;28;20053;-78
2023/10/23 08:10:31;;;;;;;27.50;18.17;;;7.40;99.90;;;;;;4996631;28;20325;-78
2023/10/23 08:12:57;;;;;;;25.70;17.63;;;7.40;99.90;;;;;;4997865;28;20320;-78
2023/10/23 08:15:22;;;;;;;33.07;22.13;;;7.50;99.90;;;;;;4997849;28;20056;-78
2023/10/23 08:17:50;;;;;;;43.97;22.67;;;7.50;99.90;;;;;;4996752;28;20451;-78
2023/10/23 08:20:17;;;;;;;25.23;17.93;;;7.60;99.90;;;;;;4997700;28;20490;-78
2023/10/23 08:22:42;;;;;;;23.73;18.63;;;7.70;99.90;;;;;;4980710;28;20305;-78
2023/10/23 08:25:08;;;;;;;26.90;17.87;;;7.80;99.90;;;;;;4997188;28;20388;-78
2023/10/23 08:27:34;;;;;;;29.00;19.93;;;7.80;99.90;;;;;;4996619;28;20038;-78
2023/10/23 08:30:00;;;;;;;22.93;18.17;;;7.90;99.90;;;;;;4996541;28;20050;-77
2023/10/23 08:32:25;;;;;;;27.00;20.03;;;8.00;99.90;;;;;;4980032;28;20051;-77
2023/10/23 08:34:53;;;;;;;34.83;21.30;;;8.10;99.90;;;;;;4995583;28;20113;-78
2023/10/23 08:37:20;;;;;;;27.80;19.87;;;8.30;99.90;;;;;;4997388;28;20050;-78
2023/10/23 08:39:45;;;;;;;25.00;17.37;;;8.30;99.90;;;;;;4997139;28;20832;-78
2023/10/23 08:42:11;;;;;;;20.73;17.00;;;8.40;99.90;;;;;;4997793;28;20278;-78
2023/10/23 08:44:37;;;;;;;21.80;17.10;;;8.40;99.90;;;;;;4998163;28;20049;-78
2023/10/23 08:47:03;;;;;;;20.37;14.53;;;8.50;99.90;;;;;;4996529;28;20379;-78
2023/10/23 08:49:30;;;;;;;21.83;17.33;;;8.50;99.90;;;;;;4997959;28;20046;-78
2023/10/23 08:51:58;;;;;;;23.30;15.93;;;8.60;99.90;;;;;;4997034;28;20297;-78
2023/10/23 08:54:25;;;;;;;21.30;15.73;;;8.70;99.90;;;;;;4996920;28;20333;-78
2023/10/23 08:57:00;;;;;;;21.93;16.90;;;8.80;99.90;;;;;;4996045;28;20294;-79
2023/10/23 08:59:26;;;;;;;22.42;16.92;;;8.90;99.90;;;;;;4997065;28;20293;-79
2023/10/23 09:01:52;;;;;;;23.37;17.17;;;9.00;99.90;;;;;;4996761;28;20057;-79
2023/10/23 09:04:17;;;;;;;20.70;16.27;;;9.20;99.90;;;;;;4997029;28;20085;-78
2023/10/23 09:06:43;;;;;;;15.10;13.10;;;9.30;99.90;;;;;;4995570;28;20069;-80
2023/10/23 09:09:09;;;;;;;17.17;14.23;;;9.30;99.90;;;;;;4997642;28;20050;-78
2023/10/23 09:11:43;;;;;;;19.43;15.00;;;9.40;99.90;;;;;;4978692;28;20046;-78
2023/10/23 09:14:10;;;;;;;16.80;12.93;;;9.40;99.90;;;;;;4997585;28;20596;-79
2023/10/23 09:16:36;;;;;;;18.87;13.30;;;9.40;99.90;;;;;;4996641;28;20285;-78
2023/10/23 09:19:03;;;;;;;17.50;13.90;;;9.50;99.90;;;;;;4996614;28;20286;-78
2023/10/23 09:21:30;;;;;;;15.37;13.67;;;9.60;99.90;;;;;;4996672;28;20340;-78
2023/10/23 09:24:00;;;;;;;18.23;12.57;;;9.60;99.90;;;;;;4995635;28;20290;-78
2023/10/23 09:26:25;;;;;;;18.70;14.13;;;9.80;99.90;;;;;;4997113;28;20290;-78
2023/10/23 09:28:52;;;;;;;17.63;13.87;;;9.80;99.90;;;;;;4996394;28;20377;-79
2023/10/23 09:31:20;;;;;;;13.57;11.47;;;9.80;99.90;;;;;;4996347;28;20039;-78
2023/10/23 09:33:46;;;;;;;16.53;10.90;;;9.90;99.90;;;;;;4996133;28;20309;-81
2023/10/23 09:36:13;;;;;;;14.00;11.50;;;10.00;99.90;;;;;;4995907;28;20289;-79
2023/10/23 09:38:42;;;;;;;13.03;10.57;;;10.10;99.90;;;;;;4996374;28;20288;-78
2023/10/23 09:41:09;;;;;;;14.87;10.53;;;10.10;99.90;;;;;;4997031;28;20274;-79
2023/10/23 09:43:43;;;;;;;13.33;9.73;;;10.20;99.90;;;;;;4995536;28;20286;-78
2023/10/23 09:46:11;;;;;;;12.57;9.60;;;10.40;99.90;;;;;;4997028;28;20277;-79
2023/10/23 09:48:41;;;;;;;12.87;10.30;;;10.50;99.90;;;;;;4994897;28;20618;-79
2023/10/23 09:51:14;;;;;;;13.63;8.97;;;10.50;99.90;;;;;;4995979;28;20359;-78
2023/10/23 09:53:58;;;;;;;10.90;8.43;;;10.60;99.90;;;;;;4996645;28;20277;-78
2023/10/23 09:56:28;;;;;;;8.87;7.03;;;10.70;99.90;;;;;;4996514;28;20425;-78
2023/10/23 09:59:06;;;;;;;12.17;7.20;;;10.70;99.90;;;;;;4995936;28;20292;-79
2023/10/23 10:01:36;;;;;;;10.97;7.47;;;10.80;99.90;;;;;;4995988;28;20683;-78
2023/10/23 10:04:12;;;;;;;12.00;8.13;;;10.90;99.90;;;;;;4994889;28;20294;-79
2023/10/23 10:06:42;;;;;;;9.30;7.10;;;11.00;99.90;;;;;;4996409;28;20328;-78
2023/10/23 10:09:12;;;;;;;9.70;6.87;;;11.00;99.90;;;;;;4995761;28;20273;-79
2023/10/23 10:11:42;;;;;;;7.90;5.70;;;11.00;99.90;;;;;;4996497;28;20297;-78
2023/10/23 10:14:08;;;;;;;8.97;5.73;;;11.10;99.90;;;;;;4995622;28;20289;-79
2023/10/23 10:16:34;;;;;;;12.03;6.10;;;11.10;99.90;;;;;;4994635;28;20293;-79
2023/10/23 10:19:01;;;;;;;9.20;5.20;;;11.20;99.90;;;;;;4994336;28;20282;-79
2023/10/23 10:21:31;;;;;;;10.17;5.60;;;11.20;99.90;;;;;;4994421;28;20050;-78
2023/10/23 10:23:59;;;;;;;9.50;6.00;;;11.30;99.90;;;;;;4993743;28;20293;-79
2023/10/23 10:26:25;;;;;;;9.43;6.20;;;11.30;99.90;;;;;;4994239;28;20316;-78
2023/10/23 10:28:52;;;;;;;8.33;5.60;;;11.30;99.90;;;;;;4995917;28;20591;-78
2023/10/23 10:31:21;;;;;;;7.97;5.43;;;11.40;99.90;;;;;;4994619;28;20301;-79
2023/10/23 10:33:46;;;;;;;11.20;6.20;;;11.50;99.90;;;;;;4994447;28;20316;-79
2023/10/23 10:36:16;;;;;;;8.90;5.37;;;11.60;99.90;;;;;;4995273;28;20297;-79
2023/10/23 10:38:42;;;;;;;10.03;5.10;;;11.70;99.90;;;;;;4995159;28;20046;-79
2023/10/23 10:41:18;;;;;;;6.60;4.67;;;11.70;99.90;;;;;;4995096;28;20273;-79
2023/10/23 10:43:51;;;;;;;11.13;5.00;;;11.80;99.90;;;;;;4995533;28;20606;-79
2023/10/23 10:46:23;;;;;;;8.47;4.70;;;11.80;99.90;;;;;;4995647;28;20274;-79
2023/10/23 10:48:50;;;;;;;7.60;3.53;;;11.90;99.90;;;;;;4994994;28;20282;-79
2023/10/23 10:51:22;;;;;;;5.13;3.13;;;11.90;99.90;;;;;;4994910;28;20301;-79
2023/10/23 10:53:53;;;;;;;9.87;3.43;;;11.90;99.90;;;;;;4994914;28;20376;-79
2023/10/23 10:56:19;;;;;;;8.30;3.97;;;11.90;99.90;;;;;;4995788;28;20283;-79
2023/10/23 10:58:45;;;;;;;7.33;3.80;;;11.90;99.90;;;;;;4994600;28;20289;-79
2023/10/23 11:01:11;;;;;;;6.37;3.77;;;11.90;99.90;;;;;;4994777;28;20382;-79
2023/10/23 11:03:38;;;;;;;7.13;4.50;;;12.00;99.90;;;;;;4994772;28;20282;-79
2023/10/23 11:06:05;;;;;;;8.80;4.03;;;12.00;99.90;;;;;;4994692;28;20292;-79
2023/10/23 11:08:32;;;;;;;5.83;3.80;;;12.00;99.90;;;;;;4994666;28;20278;-79
2023/10/23 11:11:01;;;;;;;7.27;4.53;;;12.00;99.90;;;;;;4994480;28;20848;-80
2023/10/23 11:13:26;;;;;;;6.97;3.67;;;12.10;99.90;;;;;;4994398;28;20289;-79
2023/10/23 11:15:55;;;;;;;6.73;4.13;;;12.10;99.90;;;;;;4994503;28;20273;-79
2023/10/23 11:18:21;;;;;;;6.07;3.70;;;12.10;99.90;;;;;;4976922;28;20056;-79
2023/10/23 11:20:48;;;;;;;8.50;3.90;;;12.20;99.90;;;;;;4994393;28;20270;-79
2023/10/23 11:23:15;;;;;;;7.93;4.03;;;12.30;99.90;;;;;;4993218;28;20292;-79
2023/10/23 11:25:41;;;;;;;11.20;3.47;;;12.30;99.90;;;;;;4995117;28;20637;-80
2023/10/23 11:28:07;;;;;;;7.60;3.43;;;12.30;99.90;;;;;;4995028;28;20332;-80
2023/10/23 11:30:44;;;;;;;6.77;3.27;;;12.30;99.90;;;;;;4994498;28;20047;-79
2023/10/23 11:33:10;;;;;;;5.20;3.63;;;12.30;99.90;;;;;;4993707;28;20149;-79
2023/10/23 11:35:36;;;;;;;8.70;3.30;;;12.30;99.90;;;;;;4994159;28;20623;-79
2023/10/23 11:38:01;;;;;;;9.20;2.77;;;12.40;99.90;;;;;;4994125;28;20390;-80
2023/10/23 11:40:28;;;;;;;6.00;3.70;;;12.40;99.90;;;;;;4994148;28;20050;-79
2023/10/23 11:42:54;;;;;;;6.87;2.53;;;12.40;99.90;;;;;;4994185;28;20046;-79
2023/10/23 11:45:20;;;;;;;7.60;3.10;;;12.40;99.90;;;;;;4993847;28;20615;-79
2023/10/23 11:47:46;;;;;;;6.80;2.40;;;12.50;99.90;;;;;;4994372;28;20285;-79
2023/10/23 11:50:13;;;;;;;6.40;2.80;;;12.50;99.90;;;;;;4994598;28;20050;-79
2023/10/23 11:52:44;;;;;;;5.00;2.37;;;12.50;99.90;;;;;;4994004;28;20650;-79
2023/10/23 11:55:14;;;;;;;4.93;2.17;;;12.60;99.90;;;;;;4993027;28;20843;-79
2023/10/23 11:57:44;;;;;;;7.63;3.17;;;12.60;99.90;;;;;;4994583;28;20285;-79
2023/10/23 12:00:14;;;;;;;7.77;2.80;;;12.60;99.90;;;;;;4993689;28;20282;-79
2023/10/23 12:02:42;;;;;;;6.00;2.80;;;12.60;99.90;;;;;;4994023;28;20313;-79
2023/10/23 12:05:12;;;;;;;8.00;2.63;;;12.60;99.90;;;;;;4993937;28;20430;-80
2023/10/23 12:07:44;;;;;;;7.27;2.63;;;12.60;99.90;;;;;;4993482;28;20641;-79
2023/10/23 12:10:11;;;;;;;5.60;2.60;;;12.70;99.90;;;;;;4994195;28;20278;-79
2023/10/23 12:12:41;;;;;;;5.17;2.60;;;12.70;99.90;;;;;;4993473;28;20848;-77
2023/10/23 12:15:09;;;;;;;7.83;2.27;;;12.80;99.90;;;;;;4992567;28;20372;-78
2023/10/23 12:17:38;;;;;;;6.13;2.27;;;12.70;99.90;;;;;;4994071;28;20309;-78
2023/10/23 12:20:09;;;;;;;9.37;3.53;;;12.70;99.90;;;;;;4993786;28;20288;-78
2023/10/23 12:22:44;;;;;;;6.30;2.47;;;12.70;99.90;;;;;;4993459;28;20766;-78
2023/10/23 12:25:10;;;;;;;7.45;4.10;;;12.80;99.90;;;;;;4993363;28;20638;-78
2023/10/23 12:27:37;;;;;;;9.40;4.37;;;12.80;99.90;;;;;;4993562;28;20054;-78
2023/10/23 12:30:04;;;;;;;6.67;4.23;;;12.70;99.90;;;;;;4994121;28;20292;-78
2023/10/23 12:32:31;;;;;;;7.70;4.17;;;12.80;99.90;;;;;;4993559;28;20301;-77
2023/10/23 12:34:57;;;;;;;5.90;3.90;;;12.80;99.90;;;;;;4992395;28;20309;-78
2023/10/23 12:37:27;;;;;;;7.60;4.63;;;12.80;99.90;;;;;;4993827;28;20691;-78
2023/10/23 12:39:54;;;;;;;6.27;4.20;;;12.80;99.90;;;;;;4994126;28;20276;-78